Time;durP1;ratioP1;P1;durP2;ratioP2;P2;SDS_P1;SDS_P2;PMS_P1;PMS_P2;Temp;Humidity;BMP_temperature;BMP_pressure;BME280_temperature;BME280_humidity;BME280_pressure;Samples;Min_cycle;Max_cycle;Signal;HPM_P1;HPM_P2
2021/11/27 00:02:04;;;;;;;18.00;8.82;;;;;;;2.72;100.00;95881.31;5091040;28;20028;-76
2021/11/27 00:04:29;;;;;;;19.85;9.13;;;;;;;2.79;100.00;95883.63;5091951;28;20081;-81
2021/11/27 00:06:55;;;;;;;21.70;9.05;;;;;;;2.90;100.00;95878.84;5095552;28;20024;-79
2021/11/27 00:09:20;;;;;;;19.27;9.18;;;;;;;2.87;100.00;95874.88;5095224;28;20066;-78
2021/11/27 00:11:46;;;;;;;15.45;7.90;;;;;;;2.75;100.00;95873.75;5097054;28;20036;-81
2021/11/27 00:14:12;;;;;;;15.65;8.65;;;;;;;2.90;100.00;95884.25;5098177;28;20032;-83
2021/11/27 00:16:38;;;;;;;14.38;8.02;;;;;;;2.97;100.00;95885.47;5097579;28;20050;-81
2021/11/27 00:19:04;;;;;;;13.88;8.68;;;;;;;2.99;100.00;95875.16;5095803;28;20028;-82
2021/11/27 00:21:30;;;;;;;10.95;7.60;;;;;;;3.02;100.00;95873.78;5092312;28;20526;-82
2021/11/27 00:23:56;;;;;;;10.30;6.38;;;;;;;3.01;100.00;95875.66;5092159;28;20028;-81
2021/11/27 00:26:22;;;;;;;11.20;7.35;;;;;;;2.99;100.00;95880.56;5092926;28;20103;-82
2021/11/27 00:28:48;;;;;;;17.83;9.27;;;;;;;2.84;100.00;95875.47;5092788;28;20036;-79
2021/11/27 00:31:18;;;;;;;13.65;7.85;;;;;;;2.89;100.00;95875.34;5091077;28;20028;-81
2021/11/27 00:33:46;;;;;;;13.68;8.05;;;;;;;2.87;100.00;95879.47;5092110;28;20119;-84
2021/11/27 00:36:12;;;;;;;15.95;8.95;;;;;;;2.86;100.00;95865.16;5092651;28;20051;-85
2021/11/27 00:38:38;;;;;;;14.27;8.65;;;;;;;2.81;100.00;95867.97;5091512;28;20400;-80
2021/11/27 00:41:04;;;;;;;13.95;7.65;;;;;;;2.89;100.00;95866.44;5094988;28;20043;-81
2021/11/27 00:43:30;;;;;;;12.98;8.15;;;;;;;2.94;100.00;95880.69;5095679;28;20020;-80
2021/11/27 00:45:56;;;;;;;11.52;7.25;;;;;;;2.98;100.00;95881.66;5099082;28;20066;-85
2021/11/27 00:48:22;;;;;;;17.33;8.02;;;;;;;2.92;100.00;95880.16;5098567;28;20081;-88
2021/11/27 00:50:53;;;;;;;14.95;8.43;;;;;;;2.93;100.00;95889.88;5100555;28;20452;-84
2021/11/27 00:53:20;;;;;;;11.18;7.30;;;;;;;2.97;100.00;95880.09;5104332;28;20056;-85
2021/11/27 00:55:46;;;;;;;12.23;6.60;;;;;;;2.98;100.00;95886.25;5100486;28;20054;-86
2021/11/27 00:58:12;;;;;;;13.65;6.95;;;;;;;2.85;100.00;95882.44;5098907;28;20126;-84
2021/11/27 01:00:43;;;;;;;14.85;7.45;;;;;;;2.99;100.00;95888.69;5098128;28;20066;-85
2021/11/27 01:03:12;;;;;;;11.20;6.75;;;;;;;2.94;100.00;95885.28;5097602;28;20049;-83
2021/11/27 01:05:38;;;;;;;11.27;7.28;;;;;;;2.92;100.00;95882.84;5097459;28;20032;-87
2021/11/27 01:08:04;;;;;;;11.02;6.82;;;;;;;2.95;100.00;95882.25;5097273;28;20061;-84
2021/11/27 01:10:36;;;;;;;10.75;5.78;;;;;;;2.87;100.00;95885.66;5096685;28;20043;-84
2021/11/27 01:13:01;;;;;;;9.93;6.22;;;;;;;2.82;100.00;95882.25;5096080;28;20032;-83
2021/11/27 01:15:29;;;;;;;8.13;5.80;;;;;;;2.78;100.00;95882.03;5096418;28;20384;-83
2021/11/27 01:17:57;;;;;;;8.27;5.82;;;;;;;2.84;100.00;95877.34;5096175;28;20032;-83
2021/11/27 01:20:29;;;;;;;9.27;6.03;;;;;;;2.86;100.00;95867.84;5095960;28;20055;-86
2021/11/27 01:22:55;;;;;;;12.32;7.00;;;;;;;2.88;100.00;95860.25;5096735;28;20043;-85
2021/11/27 01:25:21;;;;;;;11.10;6.30;;;;;;;2.80;100.00;95860.13;5095684;28;20032;-81
2021/11/27 01:27:47;;;;;;;11.93;6.80;;;;;;;2.77;100.00;95858.84;5094509;28;20028;-78
2021/11/27 01:30:13;;;;;;;13.52;7.70;;;;;;;2.92;100.00;95861.25;5094750;28;20028;-78
2021/11/27 01:32:40;;;;;;;14.18;7.20;;;;;;;2.89;100.00;95847.56;5094650;28;20472;-83
2021/11/27 01:35:06;;;;;;;12.13;7.30;;;;;;;2.97;100.00;95846.88;5095205;28;20032;-80
2021/11/27 01:37:33;;;;;;;11.07;6.70;;;;;;;2.96;100.00;95845.28;5097753;28;20024;-83
2021/11/27 01:40:00;;;;;;;11.07;6.97;;;;;;;3.00;100.00;95849.78;5094926;28;20024;-85
2021/11/27 01:42:26;;;;;;;9.40;6.70;;;;;;;3.05;100.00;95832.66;5094809;28;20024;-85
2021/11/27 01:44:52;;;;;;;11.80;7.47;;;;;;;2.97;100.00;95830.69;5094926;28;20393;-86
2021/11/27 01:47:17;;;;;;;12.25;7.40;;;;;;;2.90;100.00;95819.47;5094278;28;20032;-86
2021/11/27 01:49:43;;;;;;;13.90;6.75;;;;;;;2.85;100.00;95827.69;5094283;28;20126;-80
2021/11/27 01:52:08;;;;;;;11.60;7.63;;;;;;;2.78;100.00;95821.88;5093920;28;20046;-81
2021/11/27 01:54:34;;;;;;;10.60;6.28;;;;;;;2.79;100.00;95813.44;5097549;28;20055;-87
2021/11/27 01:57:03;;;;;;;12.55;6.93;;;;;;;2.80;100.00;95806.16;5104527;28;20054;-83
2021/11/27 01:59:31;;;;;;;11.02;6.60;;;;;;;2.75;100.00;95790.06;5104862;28;20032;-87
2021/11/27 02:01:57;;;;;;;11.18;6.85;;;;;;;2.71;100.00;95784.47;5105664;28;20034;-84
2021/11/27 02:04:25;;;;;;;8.63;5.60;;;;;;;2.74;100.00;95793.88;5098721;28;20055;-83
2021/11/27 02:06:51;;;;;;;9.65;6.90;;;;;;;2.67;100.00;95800.44;5099164;28;20028;-84
2021/11/27 02:09:24;;;;;;;10.93;6.57;;;;;;;2.68;100.00;95806.66;5101886;28;20036;-85
2021/11/27 02:11:51;;;;;;;8.88;5.70;;;;;;;2.77;100.00;95809.47;5095777;28;20020;-80
2021/11/27 02:14:17;;;;;;;11.02;6.25;;;;;;;2.79;100.00;95805.34;5093491;28;20020;-81
2021/11/27 02:16:45;;;;;;;10.75;6.97;;;;;;;2.77;100.00;95799.47;5102746;28;20035;-84
2021/11/27 02:19:10;;;;;;;8.35;5.63;;;;;;;2.80;100.00;95790.78;5107573;28;20054;-84
2021/11/27 02:21:36;;;;;;;9.93;5.68;;;;;;;2.88;100.00;95795.47;5101494;28;20404;-83
2021/11/27 02:24:01;;;;;;;8.70;5.93;;;;;;;2.84;100.00;95786.38;5103138;28;20020;-85
2021/11/27 02:26:31;;;;;;;9.15;5.32;;;;;;;2.89;100.00;95788.97;5092933;28;20074;-82
2021/11/27 02:29:01;;;;;;;8.80;5.18;;;;;;;2.94;100.00;95783.50;5093087;28;20032;-85
2021/11/27 02:31:27;;;;;;;9.43;5.60;;;;;;;2.87;100.00;95782.28;5093287;28;20051;-86
2021/11/27 02:33:55;;;;;;;6.82;4.13;;;;;;;2.84;100.00;95782.88;5093991;28;20028;-82
2021/11/27 02:36:23;;;;;;;7.50;4.05;;;;;;;2.88;100.00;95786.59;5093667;28;20031;-81
2021/11/27 02:38:48;;;;;;;7.15;4.63;;;;;;;2.87;100.00;95787.69;5095067;28;20036;-85
2021/11/27 02:41:14;;;;;;;8.50;5.28;;;;;;;2.84;100.00;95780.19;5094428;28;20017;-84
2021/11/27 02:43:40;;;;;;;7.05;4.05;;;;;;;2.84;100.00;95778.28;5093502;28;20048;-84
2021/11/27 02:46:05;;;;;;;6.30;4.20;;;;;;;2.84;100.00;95759.38;5095793;28;20011;-85
2021/11/27 02:48:31;;;;;;;6.82;4.70;;;;;;;2.93;100.00;95760.28;5095656;28;20092;-83
2021/11/27 02:50:57;;;;;;;6.88;4.07;;;;;;;2.89;100.00;95764.69;5096092;28;20080;-85
2021/11/27 02:53:22;;;;;;;5.72;3.35;;;;;;;2.92;100.00;95760.56;5095905;28;20046;-84
2021/11/27 02:55:48;;;;;;;5.55;3.40;;;;;;;2.93;100.00;95748.69;5115908;28;20058;-85
2021/11/27 02:58:14;;;;;;;6.85;3.90;;;;;;;2.94;100.00;95751.09;5134973;28;20055;-85
2021/11/27 03:00:42;;;;;;;6.60;3.88;;;;;;;2.92;100.00;95741.66;5134606;28;20046;-84
2021/11/27 03:03:08;;;;;;;4.80;3.38;;;;;;;2.88;100.00;95746.88;5124217;28;20035;-84
2021/11/27 03:05:33;;;;;;;6.05;3.22;;;;;;;2.99;100.00;95750.97;5125229;28;20028;-89
2021/11/27 03:07:59;;;;;;;6.40;3.33;;;;;;;2.94;100.00;95751.09;5129099;28;20082;-85
2021/11/27 03:10:25;;;;;;;4.38;2.95;;;;;;;3.00;100.00;95755.28;5127344;28;20023;-81
2021/11/27 03:12:50;;;;;;;10.18;5.85;;;;;;;3.03;100.00;95751.97;5124637;28;20072;-86
2021/11/27 03:15:17;;;;;;;7.75;5.13;;;;;;;3.08;100.00;95768.06;5123975;28;20435;-84
2021/11/27 03:17:44;;;;;;;5.50;3.75;;;;;;;3.04;100.00;95777.06;5124944;28;20087;-86
2021/11/27 03:20:12;;;;;;;5.55;3.33;;;;;;;3.05;100.00;95767.88;5123932;28;20032;-83
2021/11/27 03:22:38;;;;;;;5.07;3.50;;;;;;;3.12;100.00;95763.66;5123825;28;20031;-83
2021/11/27 03:25:05;;;;;;;6.68;3.88;;;;;;;3.07;100.00;95747.56;5122556;28;20079;-87
2021/11/27 03:27:31;;;;;;;6.95;3.80;;;;;;;3.10;100.00;95751.56;5122825;28;20395;-87
2021/11/27 03:29:56;;;;;;;5.53;3.72;;;;;;;3.01;100.00;95762.25;5122073;28;20035;-84
2021/11/27 03:32:22;;;;;;;6.15;3.70;;;;;;;3.00;100.00;95754.47;5118079;28;20026;-82
2021/11/27 03:34:50;;;;;;;7.05;4.50;;;;;;;2.92;100.00;95768.66;5117433;28;20034;-81
2021/11/27 03:37:16;;;;;;;7.28;4.68;;;;;;;2.87;100.00;95772.28;5116748;28;20023;-86
2021/11/27 03:39:42;;;;;;;6.15;4.05;;;;;;;2.97;100.00;95774.78;5118990;28;20024;-86
2021/11/27 03:42:10;;;;;;;6.47;4.18;;;;;;;3.03;100.00;95786.28;5120626;28;20032;-85
2021/11/27 03:44:36;;;;;;;5.00;3.33;;;;;;;3.05;100.00;95779.47;5119140;28;20019;-83
2021/11/27 03:47:02;;;;;;;6.47;3.92;;;;;;;3.11;100.00;95783.66;5116475;28;20392;-87
2021/11/27 03:49:29;;;;;;;6.55;4.35;;;;;;;3.09;100.00;95791.28;5101631;28;20087;-83
2021/11/27 03:51:55;;;;;;;7.20;4.20;;;;;;;3.06;100.00;95786.47;5101829;28;20032;-85
2021/11/27 03:54:22;;;;;;;7.32;4.60;;;;;;;2.96;100.00;95792.06;5101233;28;20058;-83
2021/11/27 03:56:48;;;;;;;5.18;3.50;;;;;;;2.94;100.00;95788.88;5100729;28;20040;-87
2021/11/27 03:59:14;;;;;;;6.72;4.10;;;;;;;2.91;100.00;95784.09;5100766;28;20404;-86
2021/11/27 04:01:40;;;;;;;7.55;4.32;;;;;;;2.86;100.00;95791.47;5107869;28;20008;-82
2021/11/27 04:04:08;;;;;;;5.90;3.78;;;;;;;2.83;100.00;95781.28;5110537;28;20019;-79
2021/11/27 04:06:36;;;;;;;7.13;4.80;;;;;;;2.79;100.00;95777.59;5107761;28;20024;-80
2021/11/27 04:09:04;;;;;;;7.03;4.35;;;;;;;2.66;100.00;95771.88;5103373;28;20020;-83
2021/11/27 04:11:30;;;;;;;7.00;4.35;;;;;;;2.62;100.00;95776.28;5100427;28;20461;-87
2021/11/27 04:13:55;;;;;;;6.82;4.13;;;;;;;2.60;100.00;95797.34;5100513;28;20040;-85
2021/11/27 04:16:21;;;;;;;8.32;4.68;;;;;;;2.60;100.00;95783.84;5104262;28;20020;-85
2021/11/27 04:18:47;;;;;;;8.30;4.65;;;;;;;2.53;100.00;95777.25;5105906;28;20073;-83
2021/11/27 04:21:14;;;;;;;10.50;4.88;;;;;;;2.46;100.00;95779.53;5105827;28;20024;-82
2021/11/27 04:23:41;;;;;;;7.30;4.60;;;;;;;2.41;100.00;95774.25;5105089;28;20093;-84
2021/11/27 04:26:06;;;;;;;7.63;3.65;;;;;;;2.36;100.00;95782.41;5109603;28;20048;-83
2021/11/27 04:28:32;;;;;;;7.45;4.43;;;;;;;2.36;100.00;95790.50;5101369;28;20024;-79
2021/11/27 04:30:57;;;;;;;7.80;4.90;;;;;;;2.50;100.00;95791.34;5102301;28;20051;-88
2021/11/27 04:33:23;;;;;;;9.55;4.40;;;;;;;2.52;100.00;95797.25;5103679;28;20088;-84
2021/11/27 04:35:48;;;;;;;7.60;4.80;;;;;;;2.59;100.00;95794.97;5104755;28;20032;-84
2021/11/27 04:38:14;;;;;;;5.05;3.72;;;;;;;2.55;100.00;95783.16;5104181;28;20031;-85
2021/11/27 04:40:39;;;;;;;7.53;4.20;;;;;;;2.48;100.00;95780.03;5103821;28;20058;-88
2021/11/27 04:43:05;;;;;;;6.65;4.15;;;;;;;2.38;100.00;95780.25;5102531;28;20511;-85
2021/11/27 04:45:32;;;;;;;6.20;4.25;;;;;;;2.22;100.00;95781.59;5101907;28;20028;-84
2021/11/27 04:47:57;;;;;;;7.60;4.40;;;;;;;2.23;100.00;95788.56;5103625;28;20052;-86
2021/11/27 04:50:23;;;;;;;7.60;4.28;;;;;;;2.24;100.00;95800.97;5104373;28;20071;-83
2021/11/27 04:52:49;;;;;;;6.75;4.03;;;;;;;2.36;100.00;95809.38;5114711;28;20043;-82
2021/11/27 04:55:16;;;;;;;7.88;4.28;;;;;;;2.35;100.00;95808.59;5109666;28;20059;-76
2021/11/27 04:57:41;;;;;;;27.02;13.50;;;;;;;2.22;100.00;95800.47;5095862;28;20039;-85
2021/11/27 05:00:35;;;;;;;14.63;7.28;;;;;;;2.06;100.00;95792.66;5098692;28;20028;-85
2021/11/27 05:03:00;;;;;;;10.18;6.35;;;;;;;1.87;100.00;95780.28;5089333;28;20049;-80
2021/11/27 05:05:26;;;;;;;13.07;6.50;;;;;;;1.84;100.00;95783.56;5094282;28;20024;-76
2021/11/27 05:07:52;;;;;;;8.85;4.45;;;;;;;1.88;100.00;95798.06;5094743;28;20028;-83
2021/11/27 05:10:18;;;;;;;8.55;5.68;;;;;;;1.76;100.00;95803.88;5096292;28;20069;-80
2021/11/27 05:12:44;;;;;;;8.90;4.75;;;;;;;1.84;100.00;95797.84;5097870;28;20020;-81
2021/11/27 05:15:10;;;;;;;6.65;4.30;;;;;;;1.84;100.00;95795.16;5094772;28;20028;-78
2021/11/27 05:17:36;;;;;;;7.00;3.88;;;;;;;1.76;100.00;95784.22;5094973;28;20028;-85
2021/11/27 05:20:04;;;;;;;6.47;3.78;;;;;;;1.79;100.00;95791.72;5094445;28;20086;-84
2021/11/27 05:22:29;;;;;;;6.78;4.10;;;;;;;1.74;100.00;95787.22;5100385;28;20068;-84
2021/11/27 05:24:55;;;;;;;7.78;4.53;;;;;;;1.75;100.00;95788.03;5100097;28;20031;-81
2021/11/27 05:27:21;;;;;;;7.65;4.13;;;;;;;1.71;100.00;95793.19;5094287;28;20077;-76
2021/11/27 05:29:48;;;;;;;6.43;4.00;;;;;;;1.72;100.00;95800.19;5091971;28;20478;-76
2021/11/27 05:32:25;;;;;;;6.45;4.07;;;;;;;1.72;100.00;95792.09;5094150;28;20016;-74
2021/11/27 05:34:52;;;;;;;8.50;3.83;;;;;;;1.74;100.00;95814.16;5094079;28;20074;-74
2021/11/27 05:37:18;;;;;;;6.80;3.70;;;;;;;1.61;100.00;95836.44;5091893;28;20035;-75
2021/11/27 05:39:45;;;;;;;6.13;3.78;;;;;;;1.66;100.00;95809.41;5093736;28;20028;-77
2021/11/27 05:42:12;;;;;;;5.97;3.40;;;;;;;1.67;100.00;95802.94;5093935;28;20020;-75
2021/11/27 05:44:38;;;;;;;5.85;3.10;;;;;;;1.65;100.00;95825.88;5094097;28;20545;-79
2021/11/27 05:47:04;;;;;;;6.68;3.28;;;;;;;1.64;100.00;95841.25;5093489;28;20123;-77
2021/11/27 05:49:30;;;;;;;6.05;3.45;;;;;;;1.72;100.00;95821.75;5092092;28;20028;-79
2021/11/27 05:51:55;;;;;;;5.53;2.85;;;;;;;1.78;100.00;95833.25;5093373;28;20380;-79
2021/11/27 05:54:20;;;;;;;4.78;2.90;;;;;;;1.89;100.00;95832.78;5096991;28;20055;-76
2021/11/27 05:56:46;;;;;;;3.90;2.20;;;;;;;1.99;100.00;95821.88;5101692;28;20030;-77
2021/11/27 05:59:12;;;;;;;6.40;3.30;;;;;;;2.03;100.00;95820.19;5095244;28;20423;-75
2021/11/27 06:01:37;;;;;;;8.85;3.95;;;;;;;2.03;100.00;95816.69;5110538;28;20106;-76
2021/11/27 06:04:03;;;;;;;10.63;4.57;;;;;;;2.02;100.00;95821.28;5113957;28;20049;-80
2021/11/27 06:06:28;;;;;;;6.15;3.03;;;;;;;2.07;100.00;95818.47;5113664;28;20047;-74
2021/11/27 06:08:54;;;;;;;4.90;2.30;;;;;;;2.04;100.00;95811.00;5113708;28;20767;-75
2021/11/27 06:11:19;;;;;;;4.53;2.28;;;;;;;2.14;100.00;95810.03;5113675;28;20028;-76
2021/11/27 06:13:45;;;;;;;5.78;2.33;;;;;;;2.11;100.00;95805.22;5116224;28;20035;-80
2021/11/27 06:16:10;;;;;;;5.28;2.58;;;;;;;1.98;100.00;95825.63;5114333;28;20431;-80
2021/11/27 06:18:36;;;;;;;4.93;2.42;;;;;;;1.96;100.00;95813.56;5113139;28;20476;-73
2021/11/27 06:21:03;;;;;;;5.00;2.97;;;;;;;1.94;100.00;95834.63;5113507;28;20035;-76
2021/11/27 06:23:29;;;;;;;5.85;3.00;;;;;;;1.99;100.00;95821.06;5113308;28;20031;-78
2021/11/27 06:25:55;;;;;;;5.43;2.67;;;;;;;1.93;100.00;95833.81;5113428;28;20042;-77
2021/11/27 06:28:21;;;;;;;4.75;2.50;;;;;;;1.79;100.00;95811.38;5113551;28;20118;-76
2021/11/27 06:30:47;;;;;;;4.38;2.33;;;;;;;1.77;100.00;95831.63;5093459;27;20121;-78
2021/11/27 06:33:13;;;;;;;3.90;2.22;;;;;;;1.85;100.00;95820.22;5092857;28;20028;-76
2021/11/27 06:35:39;;;;;;;3.53;2.22;;;;;;;1.75;100.00;95823.06;5092880;28;20032;-79
2021/11/27 06:38:05;;;;;;;5.30;2.63;;;;;;;1.83;100.00;95820.50;5092526;28;20132;-76
2021/11/27 06:40:31;;;;;;;5.40;2.20;;;;;;;1.95;100.00;95833.50;5092488;28;20554;-77
2021/11/27 06:43:00;;;;;;;3.30;2.08;;;;;;;1.84;100.00;95830.19;5091066;28;20028;-76
2021/11/27 06:45:26;;;;;;;4.20;2.65;;;;;;;2.00;100.00;95815.38;5093248;28;20035;-77
2021/11/27 06:47:51;;;;;;;5.70;2.83;;;;;;;2.02;100.00;95823.97;5092877;28;20031;-75
2021/11/27 06:50:17;;;;;;;5.03;2.30;;;;;;;2.01;100.00;95813.47;5093799;28;20060;-78
2021/11/27 06:52:43;;;;;;;4.65;2.42;;;;;;;2.01;100.00;95814.28;5093452;28;20064;-81
2021/11/27 06:55:09;;;;;;;6.25;3.22;;;;;;;2.18;100.00;95797.56;5093774;28;20043;-76
2021/11/27 06:57:35;;;;;;;6.35;3.17;;;;;;;2.15;100.00;95785.47;5093438;28;20028;-79
2021/11/27 07:00:00;;;;;;;6.50;3.05;;;;;;;2.26;100.00;95791.47;5092587;28;20110;-77
2021/11/27 07:02:25;;;;;;;7.55;3.20;;;;;;;2.39;100.00;95793.41;5092701;28;20020;-77
2021/11/27 07:04:51;;;;;;;4.85;2.45;;;;;;;2.39;100.00;95800.69;5092427;28;20036;-76
2021/11/27 07:07:16;;;;;;;4.70;2.65;;;;;;;2.45;100.00;95810.31;5092588;28;20366;-77
2021/11/27 07:09:42;;;;;;;4.88;3.05;;;;;;;2.35;100.00;95807.81;5095671;28;20032;-81
2021/11/27 07:12:07;;;;;;;6.18;3.10;;;;;;;2.32;100.00;95803.00;5092162;28;20035;-77
2021/11/27 07:14:33;;;;;;;5.90;3.40;;;;;;;2.30;100.00;95797.09;5092399;28;20032;-76
2021/11/27 07:16:58;;;;;;;6.47;3.85;;;;;;;2.27;100.00;95805.78;5092279;28;20036;-76
2021/11/27 07:19:24;;;;;;;9.43;4.45;;;;;;;2.45;100.00;95815.69;5091878;28;20040;-78
2021/11/27 07:21:49;;;;;;;12.57;5.82;;;;;;;2.63;100.00;95831.03;5092498;28;20127;-78
2021/11/27 07:24:15;;;;;;;8.38;4.30;;;;;;;2.43;100.00;95842.19;5090720;28;20024;-76
2021/11/27 07:26:40;;;;;;;8.18;4.40;;;;;;;2.46;100.00;95836.19;5090113;28;20476;-83
2021/11/27 07:29:06;;;;;;;10.60;4.80;;;;;;;2.35;100.00;95818.59;5092265;28;20034;-82
2021/11/27 07:31:31;;;;;;;10.73;5.15;;;;;;;2.45;100.00;95815.69;5090813;28;20024;-81
2021/11/27 07:33:56;;;;;;;9.80;5.07;;;;;;;2.62;100.00;95813.25;5092560;28;20016;-77
2021/11/27 07:36:22;;;;;;;9.48;4.47;;;;;;;2.86;100.00;95803.06;5098064;28;20020;-80
2021/11/27 07:38:48;;;;;;;10.25;4.45;;;;;;;2.94;100.00;95793.47;5096925;28;20024;-77
2021/11/27 07:41:13;;;;;;;8.20;4.30;;;;;;;2.86;100.00;95835.47;5095132;28;20024;-78
2021/11/27 07:43:39;;;;;;;8.05;4.20;;;;;;;2.87;100.00;95825.47;5096403;28;20079;-88
2021/11/27 07:46:06;;;;;;;6.95;3.95;;;;;;;2.88;100.00;95843.28;5094582;28;20427;-76
2021/11/27 07:48:32;;;;;;;6.00;3.47;;;;;;;2.86;100.00;95807.66;5097840;28;20052;-78
2021/11/27 07:51:04;;;;;;;7.88;3.22;;;;;;;2.63;100.00;95817.56;5097398;28;20025;-78
2021/11/27 07:53:30;;;;;;;7.95;3.38;;;;;;;2.66;100.00;95806.16;5092613;28;20048;-74
2021/11/27 07:55:55;;;;;;;7.25;3.53;;;;;;;2.71;100.00;95800.66;5091291;28;20045;-75
2021/11/27 07:58:23;;;;;;;10.10;3.53;;;;;;;2.80;100.00;95804.25;5087930;28;20032;-75
2021/11/27 08:00:49;;;;;;;5.75;2.95;;;;;;;2.93;100.00;95814.28;5090591;28;20487;-74
2021/11/27 08:03:15;;;;;;;5.28;3.05;;;;;;;2.97;100.00;95793.69;5088278;28;20024;-74
2021/11/27 08:05:40;;;;;;;4.78;2.92;;;;;;;2.93;100.00;95841.28;5092666;28;20088;-77
2021/11/27 08:08:06;;;;;;;6.60;3.28;;;;;;;2.89;100.00;95824.06;5090895;28;20024;-76
2021/11/27 08:10:33;;;;;;;5.80;3.08;;;;;;;2.90;100.00;95819.47;5090739;28;20020;-75
2021/11/27 08:12:59;;;;;;;6.15;3.08;;;;;;;2.89;100.00;95813.25;5097323;28;20073;-76
2021/11/27 08:15:25;;;;;;;7.85;3.65;;;;;;;2.96;100.00;95820.97;5096632;28;20024;-87
2021/11/27 08:17:50;;;;;;;9.43;3.70;;;;;;;2.98;100.00;95819.56;5093597;28;20031;-78
2021/11/27 08:20:16;;;;;;;7.50;3.88;;;;;;;3.10;100.00;95819.88;5095076;28;20103;-78
2021/11/27 08:22:41;;;;;;;6.40;3.80;;;;;;;3.21;100.00;95858.28;5096087;28;20028;-76
2021/11/27 08:25:08;;;;;;;7.15;3.83;;;;;;;3.18;100.00;95843.47;5095451;28;20136;-78
2021/11/27 08:27:34;;;;;;;11.25;3.35;;;;;;;3.17;100.00;95841.88;5096569;28;20034;-84
2021/11/27 08:30:03;;;;;;;10.23;5.20;;;;;;;3.13;100.00;95835.47;5096528;28;20030;-78
2021/11/27 08:32:30;;;;;;;7.03;3.72;;;;;;;3.13;100.00;95848.19;5092636;28;20111;-78
2021/11/27 08:34:56;;;;;;;6.28;3.58;;;;;;;3.09;100.00;95839.88;5092735;28;20027;-78
2021/11/27 08:37:22;;;;;;;6.65;3.30;;;;;;;3.12;100.00;95825.78;5103538;28;20024;-79
2021/11/27 08:39:47;;;;;;;7.45;3.47;;;;;;;3.10;100.00;95816.38;5091920;28;20028;-88
2021/11/27 08:42:13;;;;;;;8.98;4.80;;;;;;;3.14;100.00;95818.16;5093784;28;20032;-84
2021/11/27 08:44:38;;;;;;;8.15;5.60;;;;;;;3.23;100.00;95829.88;5095285;28;20028;-83
2021/11/27 08:47:04;;;;;;;6.85;4.72;;;;;;;3.24;100.00;95842.28;5096284;28;20032;-86
2021/11/27 08:49:29;;;;;;;7.32;4.43;;;;;;;3.26;100.00;95841.97;5110736;28;20024;-83
2021/11/27 08:51:54;;;;;;;7.35;4.45;;;;;;;3.23;100.00;95853.38;5100879;28;20032;-87
2021/11/27 08:54:20;;;;;;;8.15;5.07;;;;;;;3.26;100.00;95812.25;5090504;28;20059;-75
2021/11/27 08:56:45;;;;;;;9.23;5.22;;;;;;;3.36;100.00;95812.03;5093218;28;20028;-77
2021/11/27 08:59:11;;;;;;;9.77;5.20;;;;;;;3.39;100.00;95811.44;5100044;28;20024;-84
2021/11/27 09:01:37;;;;;;;10.52;6.05;;;;;;;3.48;100.00;95803.41;5098335;28;20074;-84
2021/11/27 09:04:03;;;;;;;16.63;6.25;;;;;;;3.55;100.00;95822.72;5104242;28;20052;-79
2021/11/27 09:06:29;;;;;;;8.23;4.32;;;;;;;3.51;100.00;95836.03;5103817;28;20084;-83
2021/11/27 09:08:55;;;;;;;7.78;3.92;;;;;;;3.71;100.00;95851.03;5102703;27;20039;-83
2021/11/27 09:11:23;;;;;;;16.00;8.70;;;;;;;3.71;100.00;95834.81;5101967;28;20046;-80
2021/11/27 09:13:50;;;;;;;155.30;78.90;;;;;;;3.75;100.00;95798.75;5106874;28;20020;-85
2021/11/27 09:16:17;;;;;;;20.48;8.27;;;;;;;4.23;100.00;95809.78;5111032;28;20727;-87
2021/11/27 09:18:42;;;;;;;15.20;5.63;;;;;;;4.65;100.00;95803.03;5100223;28;20118;-84
2021/11/27 09:21:08;;;;;;;10.80;5.78;;;;;;;5.01;100.00;95802.09;5104485;28;20078;-88
2021/11/27 09:23:33;;;;;;;14.82;6.43;;;;;;;4.93;100.00;95794.72;5107158;28;20037;-86
2021/11/27 09:25:58;;;;;;;10.32;6.10;;;;;;;4.70;100.00;95802.09;5108637;28;20051;-89
2021/11/27 09:28:25;;;;;;;10.13;6.72;;;;;;;4.72;100.00;95810.72;5107169;28;20028;-87
2021/11/27 09:30:51;;;;;;;9.63;5.90;;;;;;;4.47;100.00;95798.66;5111975;28;20373;-90
2021/11/27 09:33:17;;;;;;;12.00;6.10;;;;;;;4.32;100.00;95797.09;5103710;28;20039;-88
2021/11/27 09:35:56;;;;;;;9.85;6.60;;;;;;;3.99;100.00;95806.59;5116318;28;20034;-87
2021/11/27 09:38:22;;;;;;;11.35;6.20;;;;;;;3.89;100.00;95822.22;5118222;28;20039;-89
2021/11/27 09:40:51;;;;;;;10.75;5.95;;;;;;;3.68;100.00;95800.28;5118069;28;20107;-86
2021/11/27 09:43:18;;;;;;;11.68;6.13;;;;;;;3.56;100.00;95832.44;5131146;27;20024;-87
2021/11/27 09:45:43;;;;;;;10.55;5.07;;;;;;;3.45;100.00;95828.34;5116965;28;20107;-87
2021/11/27 09:48:10;;;;;;;8.10;4.72;;;;;;;3.54;100.00;95826.56;5107949;28;20111;-84
2021/11/27 09:50:36;;;;;;;9.70;5.40;;;;;;;3.53;100.00;95839.25;5112927;28;20512;-85
2021/11/27 09:53:02;;;;;;;9.18;5.03;;;;;;;3.65;100.00;95841.44;5116483;28;20048;-87
2021/11/27 09:55:27;;;;;;;7.93;4.68;;;;;;;3.65;100.00;95819.81;5122760;28;20028;-83
2021/11/27 09:57:53;;;;;;;8.85;4.60;;;;;;;3.71;100.00;95814.00;5121919;28;20020;-83
2021/11/27 10:00:20;;;;;;;8.65;5.30;;;;;;;3.66;100.00;95816.00;5116079;28;20024;-88
2021/11/27 10:02:53;;;;;;;7.93;4.90;;;;;;;3.67;100.00;95833.81;5117748;28;20054;-85
2021/11/27 10:05:19;;;;;;;9.48;5.40;;;;;;;3.56;100.00;95821.63;5124102;28;20027;-85
2021/11/27 10:07:47;;;;;;;10.80;5.85;;;;;;;3.44;100.00;95842.97;5111026;28;20028;-87
2021/11/27 10:10:13;;;;;;;9.82;6.18;;;;;;;3.45;100.00;95831.03;5122271;28;20035;-83
2021/11/27 10:12:40;;;;;;;12.30;5.90;;;;;;;3.44;100.00;95846.47;5115013;28;20477;-84
2021/11/27 10:15:07;;;;;;;12.18;5.22;;;;;;;3.53;100.00;95858.16;5105659;28;20053;-85
2021/11/27 10:17:32;;;;;;;6.80;4.35;;;;;;;3.47;100.00;95850.47;5108256;28;20028;-84
2021/11/27 10:20:00;;;;;;;6.80;4.70;;;;;;;3.43;100.00;95841.34;5106531;28;20111;-79
2021/11/27 10:22:37;;;;;;;9.27;4.97;;;;;;;3.49;100.00;95832.03;5107178;28;20139;-83
2021/11/27 10:25:23;;;;;;;8.23;4.40;;;;;;;3.66;100.00;95810.59;5107220;28;20119;-87
2021/11/27 10:27:48;;;;;;;7.53;4.55;;;;;;;3.79;100.00;95801.63;5108829;28;20041;-89
2021/11/27 10:30:14;;;;;;;7.40;4.20;;;;;;;4.04;100.00;95800.28;5110207;28;20111;-75
2021/11/27 10:32:43;;;;;;;6.75;4.47;;;;;;;4.43;100.00;95792.25;5097292;28;20036;-75
2021/11/27 10:35:14;;;;;;;7.43;4.50;;;;;;;4.94;100.00;95797.13;5098772;28;20103;-74
2021/11/27 10:37:44;;;;;;;8.32;4.55;;;;;;;5.37;100.00;95802.69;5098265;28;20016;-78
2021/11/27 10:40:19;;;;;;;6.60;4.25;;;;;;;5.25;100.00;95797.06;5098957;28;20032;-74
2021/11/27 10:42:50;;;;;;;;;;;;;;;4.90;100.00;95801.56;5098587;28;20043;-80
2021/11/27 10:45:28;;;;;;;9.63;4.90;;;;;;;4.77;100.00;95803.25;5098486;28;19920;-74
2021/11/27 10:48:20;;;;;;;12.48;6.00;;;;;;;4.56;100.00;95812.22;5098250;28;20042;-74
2021/11/27 10:50:52;;;;;;;9.60;5.88;;;;;;;4.48;100.00;95804.88;5101721;28;20035;-75
2021/11/27 10:53:23;;;;;;;8.35;5.88;;;;;;;4.43;100.00;95807.69;5098552;28;20024;-74
2021/11/27 10:55:49;;;;;;;7.90;5.10;;;;;;;4.40;100.00;95814.50;5097523;28;20034;-78
2021/11/27 10:58:15;;;;;;;9.68;5.63;;;;;;;4.17;100.00;95821.03;5096927;28;20562;-77
2021/11/27 11:00:46;;;;;;;10.48;5.65;;;;;;;4.08;100.00;95822.88;5097998;28;20473;-82
2021/11/27 11:03:28;;;;;;;11.25;6.22;;;;;;;3.87;100.00;95800.91;5100205;28;20035;-83
2021/11/27 11:05:56;;;;;;;14.77;6.47;;;;;;;3.72;100.00;95803.97;5100144;28;20031;-73
2021/11/27 11:08:37;;;;;;;16.20;8.07;;;;;;;3.89;100.00;95808.72;5097822;28;20076;-74
2021/11/27 11:11:21;;;;;;;13.48;6.68;;;;;;;4.07;100.00;95799.66;5097642;28;20036;-73
2021/11/27 11:13:57;;;;;;;10.75;6.20;;;;;;;4.26;100.00;95817.28;5098704;28;20031;-77
2021/11/27 11:16:23;;;;;;;53.08;27.60;;;;;;;4.42;100.00;95811.50;5101576;28;20027;-80
2021/11/27 11:18:54;;;;;;;35.70;19.55;;;;;;;4.37;100.00;95804.31;5099725;28;20043;-77
2021/11/27 11:21:22;;;;;;;32.15;17.42;;;;;;;4.30;100.00;95799.34;5101355;28;20038;-80
2021/11/27 11:23:49;;;;;;;14.45;8.13;;;;;;;4.21;100.00;95793.06;5102160;28;20039;-76
2021/11/27 11:26:21;;;;;;;12.02;7.45;;;;;;;4.20;100.00;95820.41;5108990;28;20020;-79
2021/11/27 11:28:58;;;;;;;12.80;8.23;;;;;;;4.18;100.00;95834.25;5108330;28;20035;-80
2021/11/27 11:31:26;;;;;;;11.50;7.63;;;;;;;4.03;100.00;95823.81;5115900;28;20020;-85